Time;durP1;ratioP1;P1;durP2;ratioP2;P2;SDS_P1;SDS_P2;PMS_P1;PMS_P2;Temp;Humidity;BMP_temperature;BMP_pressure;BME280_temperature;BME280_humidity;BME280_pressure;Samples;Min_cycle;Max_cycle;Signal;HPM_P1;HPM_P2
2023/10/08 00:02:39;;;;;;;9.40;3.60;;;;;;;10.57;88.91;100061.07;107985;275;97942;-59
2023/10/08 00:05:21;;;;;;;9.70;4.10;;;;;;;10.54;89.00;100051.05;107984;274;119541;-59
2023/10/08 00:07:58;;;;;;;10.20;4.30;;;;;;;10.53;89.05;100048.28;107993;275;105058;-58
2023/10/08 00:10:42;;;;;;;13.10;5.20;;;;;;;10.52;89.29;100051.08;107948;275;113713;-55
2023/10/08 00:13:19;;;;;;;8.60;4.30;;;;;;;10.54;89.28;100047.17;107942;275;95491;-55
2023/10/08 00:16:01;;;;;;;8.70;4.10;;;;;;;10.56;89.28;100048.48;107961;274;97579;-59
2023/10/08 00:18:48;;;;;;;8.40;4.40;;;;;;;10.56;89.46;100048.30;107957;275;119223;-59
2023/10/08 00:21:36;;;;;;;8.50;3.60;;;;;;;10.54;89.47;100046.23;107938;275;105707;-56
2023/10/08 00:24:11;;;;;;;11.80;4.10;;;;;;;10.55;89.62;100041.70;107946;275;114583;-55
2023/10/08 00:27:00;;;;;;;9.10;4.20;;;;;;;10.53;89.61;100033.46;107969;275;95532;-54
2023/10/08 00:29:45;;;;;;;11.00;4.80;;;;;;;10.52;89.65;100032.33;107990;275;98163;-54
2023/10/08 00:32:30;;;;;;;9.20;3.80;;;;;;;10.53;89.74;100034.20;107996;275;119783;-55
2023/10/08 00:35:13;;;;;;;9.00;4.30;;;;;;;10.53;89.81;100038.48;107973;275;104561;-56
2023/10/08 00:38:00;;;;;;;10.20;3.90;;;;;;;10.50;89.84;100051.92;107915;275;114764;-56
2023/10/08 00:40:55;;;;;;;10.00;4.40;;;;;;;10.45;89.96;100048.96;107936;275;97020;-56
2023/10/08 00:43:37;;;;;;;10.80;4.80;;;;;;;10.43;90.08;100044.82;107700;275;98692;-54
2023/10/08 00:46:22;;;;;;;9.50;4.50;;;;;;;10.45;90.21;100049.40;107985;275;118423;-59
2023/10/08 00:49:23;;;;;;;11.70;4.90;;;;;;;10.46;90.33;100032.55;107930;274;105475;-59
2023/10/08 00:52:04;;;;;;;10.20;4.70;;;;;;;10.47;90.23;100023.81;107916;275;115020;-56
2023/10/08 00:54:49;;;;;;;8.60;4.10;;;;;;;10.46;90.30;100021.61;107912;274;96786;-56
2023/10/08 00:57:28;;;;;;;11.50;4.80;;;;;;;10.48;90.30;100017.75;107978;274;97986;-53
2023/10/08 01:00:15;;;;;;;11.20;4.20;;;;;;;10.47;90.47;100023.86;107989;274;118156;-54
2023/10/08 01:03:16;;;;;;;9.50;4.50;;;;;;;10.40;90.41;100037.65;107959;274;105400;-54
2023/10/08 01:05:58;;;;;;;15.40;4.50;;;;;;;10.37;90.58;100042.52;107958;274;114863;-54
2023/10/08 01:08:36;;;;;;;11.10;4.80;;;;;;;10.33;90.76;100034.15;107977;275;95278;-53
2023/10/08 01:11:39;;;;;;;11.10;4.80;;;;;;;10.29;90.75;100032.16;108007;274;96384;-56
2023/10/08 01:14:31;;;;;;;8.70;4.90;;;;;;;10.29;90.65;100034.03;107943;275;118389;-58
2023/10/08 01:17:10;;;;;;;10.40;4.70;;;;;;;10.32;90.88;100023.83;108026;274;103960;-54
2023/10/08 01:19:56;;;;;;;10.30;5.20;;;;;;;10.34;90.78;100019.16;107939;275;114460;-54
2023/10/08 01:22:40;;;;;;;11.00;5.00;;;;;;;10.29;90.85;100028.21;107942;275;95931;-55
2023/10/08 01:25:24;;;;;;;12.10;4.80;;;;;;;10.27;91.03;100033.40;108003;274;97653;-55
2023/10/08 01:28:09;;;;;;;12.70;5.30;;;;;;;10.28;90.97;100019.15;107919;275;118785;-60
2023/10/08 01:30:46;;;;;;;13.40;5.80;;;;;;;10.30;91.13;100009.00;107935;274;104517;-56
2023/10/08 01:33:22;;;;;;;11.20;4.40;;;;;;;10.30;91.07;100009.48;107911;275;114439;-56
2023/10/08 01:36:12;;;;;;;11.60;5.30;;;;;;;10.27;91.13;100019.11;107917;275;97771;-58
2023/10/08 01:38:54;;;;;;;6.70;4.40;;;;;;;10.24;91.25;100017.67;107953;275;98599;-57
2023/10/08 01:41:40;;;;;;;7.80;4.70;;;;;;;10.23;91.21;100021.20;107933;275;119920;-55
2023/10/08 01:44:22;;;;;;;10.80;4.90;;;;;;;10.23;91.12;100025.39;107943;274;107460;-55
2023/10/08 01:47:04;;;;;;;10.60;4.50;;;;;;;10.23;91.28;100041.00;107932;275;113694;-57
2023/10/08 01:49:43;;;;;;;10.20;5.10;;;;;;;10.22;91.35;100057.52;107900;275;96408;-57
2023/10/08 01:52:30;;;;;;;9.30;4.70;;;;;;;10.20;91.56;100060.45;107946;275;96747;-58
2023/10/08 01:55:13;;;;;;;9.90;4.60;;;;;;;10.21;91.54;100065.75;108013;275;117152;-57
2023/10/08 01:57:57;;;;;;;11.50;5.40;;;;;;;10.25;91.65;100057.30;107934;275;104390;-56
2023/10/08 02:00:38;;;;;;;9.90;4.90;;;;;;;10.27;91.74;100057.81;107997;275;113905;-57
2023/10/08 02:03:18;;;;;;;10.40;5.20;;;;;;;10.25;91.71;100058.34;107736;275;96649;-56
2023/10/08 02:05:59;;;;;;;11.30;5.30;;;;;;;10.24;91.79;100059.21;107995;275;97482;-56
2023/10/08 02:08:36;;;;;;;11.50;4.80;;;;;;;10.23;91.76;100052.73;107947;274;119785;-56
2023/10/08 02:11:21;;;;;;;11.20;4.90;;;;;;;10.20;91.74;100057.75;107972;275;105391;-55
2023/10/08 02:14:04;;;;;;;10.10;5.30;;;;;;;10.18;91.68;100058.61;107910;275;114129;-55
2023/10/08 02:16:43;;;;;;;13.50;5.80;;;;;;;10.14;91.66;100057.96;107951;275;97203;-56
2023/10/08 02:19:26;;;;;;;10.70;5.30;;;;;;;10.15;91.87;100063.95;107916;275;97568;-56
2023/10/08 02:22:09;;;;;;;11.30;5.70;;;;;;;10.14;91.90;100062.89;107930;275;119756;-55
2023/10/08 02:24:53;;;;;;;15.40;5.30;;;;;;;10.12;92.06;100062.00;107923;275;105495;-55
2023/10/08 02:27:33;;;;;;;9.30;5.70;;;;;;;10.10;91.98;100066.56;107963;275;114992;-57
2023/10/08 02:30:12;;;;;;;10.20;5.50;;;;;;;10.06;92.01;100078.83;108006;275;95955;-57
2023/10/08 02:32:53;;;;;;;9.60;5.70;;;;;;;10.05;92.19;100091.11;108021;275;98068;-54
2023/10/08 02:35:33;;;;;;;10.80;6.10;;;;;;;10.04;92.25;100102.23;107926;275;119820;-59
2023/10/08 02:38:12;;;;;;;12.00;5.60;;;;;;;10.03;92.22;100102.30;107955;275;104831;-60
2023/10/08 02:40:59;;;;;;;10.20;5.20;;;;;;;10.03;92.35;100103.80;107930;275;115220;-59
2023/10/08 02:43:34;;;;;;;;;;;;;;;10.02;92.36;100110.86;107982;275;96614;-59
2023/10/08 02:46:15;;;;;;;11.60;5.30;;;;;;;10.02;92.50;100120.10;107934;275;97582;-55
2023/10/08 02:48:52;;;;;;;15.20;6.10;;;;;;;10.02;92.70;100120.39;107663;275;119767;-55
2023/10/08 02:51:35;;;;;;;14.10;6.60;;;;;;;10.01;92.76;100116.91;107987;275;106794;-57
2023/10/08 02:54:18;;;;;;;10.60;6.20;;;;;;;10.01;92.67;100125.81;107909;274;114207;-57
2023/10/08 02:56:58;;;;;;;11.00;5.80;;;;;;;10.02;92.72;100129.56;107963;275;96829;-56
2023/10/08 02:59:42;;;;;;;8.70;4.90;;;;;;;10.02;92.87;100124.14;107966;274;97157;-57
2023/10/08 03:02:24;;;;;;;12.60;5.90;;;;;;;10.02;92.84;100129.24;107886;275;118679;-57
2023/10/08 03:05:03;;;;;;;13.80;5.70;;;;;;;10.00;92.79;100134.53;107947;275;105183;-56
2023/10/08 03:07:37;;;;;;;13.80;4.60;;;;;;;9.97;92.60;100124.87;107961;275;114672;-60
2023/10/08 03:10:32;;;;;;;10.50;4.50;;;;;;;9.91;92.44;100125.60;107962;275;95265;-60
2023/10/08 03:13:12;;;;;;;10.40;4.40;;;;;;;9.83;92.48;100125.62;107937;275;97014;-55
2023/10/08 03:16:08;;;;;;;9.70;3.80;;;;;;;9.82;92.68;100132.14;107961;275;119544;-57
2023/10/08 03:18:49;;;;;;;9.00;4.00;;;;;;;9.84;92.44;100149.09;107976;275;105510;-57
2023/10/08 03:21:48;;;;;;;6.70;3.20;;;;;;;9.83;92.25;100147.09;108006;275;115244;-57
2023/10/08 03:24:37;;;;;;;7.20;3.40;;;;;;;9.75;91.84;100141.43;107936;275;97388;-58
2023/10/08 03:27:20;;;;;;;7.50;3.10;;;;;;;9.73;91.79;100144.89;107949;275;97667;-58
2023/10/08 03:30:01;;;;;;;4.90;3.00;;;;;;;9.70;91.54;100154.70;107929;275;119437;-57
2023/10/08 03:32:42;;;;;;;7.90;3.10;;;;;;;9.67;91.52;100162.27;107941;275;105912;-55
2023/10/08 03:35:27;;;;;;;6.00;2.80;;;;;;;9.67;91.20;100165.52;107982;275;113004;-55
2023/10/08 03:41:07;;;;;;;7.70;3.00;;;;;;;9.53;90.87;100169.84;107911;274;98212;-57
2023/10/08 03:44:01;;;;;;;8.40;2.80;;;;;;;9.48;90.99;100173.10;107875;275;119352;-57
2023/10/08 03:46:42;;;;;;;5.00;1.80;;;;;;;9.47;90.87;100179.92;107931;275;104490;-55
2023/10/08 03:49:26;;;;;;;7.00;2.10;;;;;;;9.44;90.54;100182.96;107955;274;114057;-55
2023/10/08 03:52:12;;;;;;;5.40;2.00;;;;;;;9.45;90.35;100187.81;107935;275;95716;-55
2023/10/08 03:55:04;;;;;;;6.00;2.20;;;;;;;9.44;90.05;100194.45;107947;274;97934;-56
2023/10/08 03:57:48;;;;;;;5.50;1.90;;;;;;;9.37;89.80;100205.20;107968;275;118712;-56
2023/10/08 04:00:31;;;;;;;6.10;2.30;;;;;;;9.31;89.53;100206.98;107966;274;105618;-58
2023/10/08 04:03:41;;;;;;;5.30;1.80;;;;;;;9.27;89.50;100213.86;107965;274;114396;-60
2023/10/08 04:06:28;;;;;;;5.20;2.30;;;;;;;9.19;89.02;100217.64;107960;275;96159;-57
2023/10/08 04:09:16;;;;;;;5.50;1.70;;;;;;;9.15;88.75;100221.69;107928;274;97248;-55
2023/10/08 04:11:55;;;;;;;2.90;1.60;;;;;;;9.10;88.23;100224.52;107985;275;119014;-58
2023/10/08 04:14:38;;;;;;;7.40;2.10;;;;;;;9.03;88.05;100225.80;107958;275;105707;-56
2023/10/08 04:17:22;;;;;;;5.50;1.50;;;;;;;8.99;87.83;100230.96;107930;275;114245;-53
2023/10/08 04:19:58;;;;;;;3.50;1.40;;;;;;;8.91;87.44;100238.31;107965;274;95373;-54
2023/10/08 04:22:36;;;;;;;4.10;1.20;;;;;;;8.86;87.27;100245.32;107961;275;95711;-54
2023/10/08 04:25:14;;;;;;;3.10;1.30;;;;;;;8.78;86.94;100255.09;107987;274;118320;-54
2023/10/08 04:27:58;;;;;;;2.40;1.60;;;;;;;8.68;86.57;100261.65;107970;274;105831;-54
2023/10/08 04:30:41;;;;;;;2.60;1.10;;;;;;;8.59;86.45;100263.85;107923;274;114947;-59
2023/10/08 04:33:19;;;;;;;2.00;1.00;;;;;;;8.49;86.10;100269.85;107908;274;96510;-60
2023/10/08 04:36:04;;;;;;;3.20;1.40;;;;;;;8.44;85.86;100276.20;107977;274;97979;-56
2023/10/08 04:38:41;;;;;;;;;;;;;;;8.39;85.64;100279.52;107954;275;118922;-55
2023/10/08 04:41:18;;;;;;;2.80;1.00;;;;;;;8.32;85.47;100284.83;107978;275;104904;-57
2023/10/08 04:44:07;;;;;;;2.60;1.20;;;;;;;8.29;85.34;100278.45;107983;274;114492;-57
2023/10/08 04:46:52;;;;;;;2.10;1.00;;;;;;;8.28;85.37;100281.13;108012;275;96730;-61
2023/10/08 04:49:37;;;;;;;2.60;1.10;;;;;;;8.24;85.04;100287.14;107774;275;98683;-59
2023/10/08 04:52:15;;;;;;;2.70;0.90;;;;;;;8.15;84.79;100291.96;107993;274;120043;-54
2023/10/08 04:54:54;;;;;;;2.50;1.20;;;;;;;8.10;84.80;100297.03;107708;274;106357;-54
2023/10/08 04:57:36;;;;;;;2.10;1.00;;;;;;;8.06;84.66;100305.52;107941;274;113752;-55
2023/10/08 05:00:16;;;;;;;2.50;1.10;;;;;;;8.04;84.43;100310.06;107955;275;96580;-55
2023/10/08 05:02:54;;;;;;;2.80;1.10;;;;;;;7.99;84.41;100311.79;108019;275;97067;-55
2023/10/08 05:05:54;;;;;;;3.60;1.00;;;;;;;7.94;84.40;100313.96;107919;274;119795;-53
2023/10/08 05:08:47;;;;;;;4.30;1.40;;;;;;;7.85;84.20;100314.33;107950;274;104511;-54
2023/10/08 05:11:45;;;;;;;3.50;1.10;;;;;;;7.82;84.13;100314.48;107932;274;114439;-54
2023/10/08 05:14:34;;;;;;;2.20;1.10;;;;;;;7.85;84.27;100321.52;107918;275;96545;-54
2023/10/08 05:17:22;;;;;;;2.10;1.20;;;;;;;7.85;83.97;100325.34;107951;274;98513;-54
2023/10/08 05:20:19;;;;;;;3.10;1.40;;;;;;;7.85;83.96;100331.88;107930;274;119244;-54
2023/10/08 05:23:20;;;;;;;2.50;1.30;;;;;;;7.84;83.91;100335.38;107958;274;106284;-54
2023/10/08 05:26:08;;;;;;;3.30;1.10;;;;;;;7.89;83.98;100340.55;107981;274;113474;-57
2023/10/08 05:29:25;;;;;;;3.70;1.10;;;;;;;7.95;83.88;100340.66;107966;274;97034;-57
2023/10/08 05:35:31;;;;;;;2.80;1.40;;;;;;;8.03;83.91;100352.92;107712;275;120451;-56
2023/10/08 05:38:16;;;;;;;4.90;1.00;;;;;;;8.15;83.73;100360.14;107992;275;106308;-56
2023/10/08 05:44:14;;;;;;;3.20;1.00;;;;;;;8.77;84.56;100370.11;107963;274;96234;-56
2023/10/08 05:47:26;;;;;;;2.10;1.00;;;;;;;9.19;84.19;100377.90;108007;275;98149;-55
2023/10/08 05:50:38;;;;;;;2.30;1.00;;;;;;;9.35;83.64;100388.89;107918;274;119004;-55
2023/10/08 05:53:43;;;;;;;3.00;1.00;;;;;;;9.36;82.95;100395.27;107921;275;103694;-57
2023/10/08 05:56:40;;;;;;;;;;;;;;;9.38;82.36;100400.24;107754;275;112711;-57
2023/10/08 05:59:27;;;;;;;1.90;0.80;;;;;;;9.72;82.19;100413.80;107916;275;95685;-57
2023/10/08 06:02:27;;;;;;;2.30;1.10;;;;;;;9.61;81.39;100418.05;107954;274;98412;-59
2023/10/08 06:05:20;;;;;;;4.40;1.00;;;;;;;9.53;81.28;100428.88;107918;274;119101;-58
2023/10/08 06:08:13;;;;;;;2.80;1.20;;;;;;;9.68;81.27;100435.10;107963;275;106152;-59
2023/10/08 06:11:00;;;;;;;2.20;1.00;;;;;;;9.93;80.41;100442.73;107940;274;114413;-55
2023/10/08 06:13:50;;;;;;;1.80;1.00;;;;;;;10.44;79.88;100446.34;107990;274;93463;-56
2023/10/08 06:16:41;;;;;;;2.70;0.80;;;;;;;10.34;79.11;100449.99;108007;275;99868;-59
2023/10/08 06:19:23;;;;;;;3.30;1.00;;;;;;;10.11;78.57;100454.05;107982;275;118416;-58
2023/10/08 06:22:04;;;;;;;1.40;0.60;;;;;;;9.92;78.49;100462.02;107950;275;105457;-53
2023/10/08 06:24:47;;;;;;;2.20;1.00;;;;;;;9.71;77.83;100473.96;108037;275;113848;-54
2023/10/08 06:27:25;;;;;;;1.20;0.70;;;;;;;9.83;77.67;100473.98;108012;274;94174;-60
2023/10/08 06:30:05;;;;;;;1.40;0.60;;;;;;;10.64;76.80;100479.36;107996;275;97890;-59
2023/10/08 06:32:45;;;;;;;1.80;0.80;;;;;;;10.82;76.26;100488.10;107968;274;118991;-56
2023/10/08 06:35:25;;;;;;;1.50;0.80;;;;;;;10.52;76.09;100493.52;107852;275;105425;-57
2023/10/08 06:38:07;;;;;;;2.10;0.80;;;;;;;10.23;75.75;100501.86;107781;275;114467;-54
2023/10/08 06:40:52;;;;;;;2.10;0.90;;;;;;;10.15;75.91;100499.98;107951;275;95311;-54
2023/10/08 06:43:29;;;;;;;;;;;;;;;10.00;75.46;100504.86;107981;275;96541;-54
2023/10/08 06:46:07;;;;;;;2.50;0.80;;;;;;;9.94;74.60;100510.45;107928;275;120500;-59
2023/10/08 06:48:50;;;;;;;1.60;1.00;;;;;;;9.90;74.97;100517.90;107943;275;105764;-59
2023/10/08 06:51:35;;;;;;;1.60;0.80;;;;;;;9.91;74.71;100524.23;107953;275;115408;-55
2023/10/08 06:54:19;;;;;;;2.60;0.80;;;;;;;9.92;74.76;100529.52;107920;274;94772;-56
2023/10/08 06:56:57;;;;;;;2.70;0.80;;;;;;;9.98;74.22;100537.06;107859;275;98203;-54
2023/10/08 06:59:39;;;;;;;1.70;1.00;;;;;;;10.05;74.10;100536.80;107980;275;119511;-54
2023/10/08 07:02:18;;;;;;;2.40;0.80;;;;;;;10.19;73.52;100536.61;108023;274;105477;-57
2023/10/08 07:05:09;;;;;;;3.20;1.00;;;;;;;10.05;72.89;100545.10;108036;275;113423;-57
2023/10/08 07:07:47;;;;;;;2.60;0.90;;;;;;;10.00;72.62;100548.85;108017;275;94388;-55
2023/10/08 07:10:30;;;;;;;1.60;0.70;;;;;;;10.03;72.52;100558.98;108003;275;96320;-56
2023/10/08 07:13:17;;;;;;;2.00;0.70;;;;;;;10.13;72.15;100560.76;108043;275;118650;-57
2023/10/08 07:15:57;;;;;;;2.00;0.70;;;;;;;10.05;71.84;100563.91;107988;275;104590;-57
2023/10/08 07:18:37;;;;;;;2.20;0.70;;;;;;;10.04;71.06;100568.59;107933;275;113965;-55
2023/10/08 07:21:28;;;;;;;4.50;0.80;;;;;;;10.14;71.22;100568.65;107997;275;95165;-59
2023/10/08 07:24:15;;;;;;;2.30;0.80;;;;;;;10.30;71.00;100571.08;107894;274;97065;-58
2023/10/08 07:26:55;;;;;;;1.20;0.50;;;;;;;10.25;70.28;100577.27;107870;275;120195;-58
2023/10/08 07:29:32;;;;;;;2.00;0.80;;;;;;;10.25;70.47;100575.48;107927;275;104725;-59
2023/10/08 07:32:18;;;;;;;1.80;0.70;;;;;;;10.35;70.02;100581.13;107954;275;115232;-59
2023/10/08 07:35:14;;;;;;;2.20;1.00;;;;;;;10.67;69.65;100584.92;107986;275;94620;-58
2023/10/08 07:37:53;;;;;;;2.00;0.80;;;;;;;10.91;69.67;100589.95;107920;275;95938;-59
2023/10/08 07:40:37;;;;;;;2.60;0.80;;;;;;;11.40;69.64;100595.54;107988;275;120305;-57
2023/10/08 07:43:20;;;;;;;1.90;0.90;;;;;;;12.80;69.07;100593.65;107958;275;105708;-56
2023/10/08 07:46:00;;;;;;;2.10;0.80;;;;;;;14.44;68.31;100598.29;107922;274;114472;-59
2023/10/08 07:48:44;;;;;;;2.30;1.10;;;;;;;16.21;65.06;100597.77;107940;274;94662;-60
2023/10/08 07:51:27;;;;;;;1.90;0.90;;;;;;;17.71;63.84;100593.37;107989;274;97041;-53
2023/10/08 07:54:09;;;;;;;16.20;5.30;;;;;;;18.87;62.24;100593.72;107989;274;119082;-54
2023/10/08 07:56:56;;;;;;;6.70;2.50;;;;;;;20.04;60.51;100590.27;107976;274;104329;-56
2023/10/08 07:59:38;;;;;;;2.00;1.10;;;;;;;20.85;57.54;100591.48;107930;274;113857;-56
2023/10/08 08:02:18;;;;;;;3.30;1.50;;;;;;;20.60;54.35;100595.25;107975;274;94892;-56
2023/10/08 08:04:57;;;;;;;2.70;1.10;;;;;;;19.99;53.89;100597.90;107984;274;97309;-57
2023/10/08 08:07:32;;;;;;;2.70;1.10;;;;;;;19.34;52.30;100606.32;107938;274;119206;-56
2023/10/08 08:10:11;;;;;;;2.40;1.20;;;;;;;18.46;51.82;100606.66;107930;274;104077;-56
2023/10/08 08:12:56;;;;;;;2.20;0.90;;;;;;;17.98;51.66;100608.98;107900;274;114891;-57
2023/10/08 08:15:40;;;;;;;4.80;1.30;;;;;;;17.31;52.22;100615.13;107877;274;95300;-55
2023/10/08 08:18:22;;;;;;;1.90;0.90;;;;;;;16.60;51.92;100618.41;107872;274;97974;-55
2023/10/08 08:21:14;;;;;;;3.00;0.90;;;;;;;16.01;52.04;100620.72;107893;274;119308;-59
2023/10/08 08:24:05;;;;;;;1.60;0.80;;;;;;;15.72;51.92;100627.84;107901;274;105933;-59
2023/10/08 08:27:00;;;;;;;1.90;0.80;;;;;;;14.93;51.94;100641.88;107885;274;112781;-56
2023/10/08 08:29:45;;;;;;;3.80;0.90;;;;;;;14.35;52.80;100646.91;107912;274;93849;-56
2023/10/08 08:32:30;;;;;;;1.90;0.80;;;;;;;14.38;53.34;100642.62;107943;274;98834;-55
2023/10/08 08:35:16;;;;;;;1.50;0.60;;;;;;;14.61;53.54;100645.60;107904;274;119111;-55
2023/10/08 08:37:54;;;;;;;2.40;0.60;;;;;;;14.63;53.24;100648.57;107962;274;105607;-57
2023/10/08 08:40:29;;;;;;;1.90;0.90;;;;;;;14.47;53.41;100646.09;107990;274;115835;-57
2023/10/08 08:43:12;;;;;;;1.50;0.70;;;;;;;14.15;53.25;100655.73;107889;274;92805;-57
2023/10/08 08:45:56;;;;;;;2.70;0.80;;;;;;;13.90;53.36;100653.04;107938;274;96275;-55
2023/10/08 08:48:35;;;;;;;1.70;0.80;;;;;;;13.97;53.73;100649.96;107903;274;118179;-56
2023/10/08 08:51:16;;;;;;;2.50;1.30;;;;;;;13.51;52.97;100649.38;107914;274;104094;-53
2023/10/08 08:54:01;;;;;;;2.40;0.80;;;;;;;13.39;53.21;100659.66;107858;274;114790;-55
2023/10/08 08:56:47;;;;;;;2.10;0.70;;;;;;;13.45;53.35;100663.18;107927;274;93661;-58
2023/10/08 08:59:26;;;;;;;2.60;0.80;;;;;;;13.47;53.25;100663.95;107894;274;98593;-58
2023/10/08 09:02:07;;;;;;;1.50;0.70;;;;;;;13.28;52.82;100669.11;107885;274;119502;-58
2023/10/08 09:04:50;;;;;;;1.10;0.60;;;;;;;13.21;53.01;100671.67;107900;274;106028;-59
2023/10/08 09:07:31;;;;;;;4.50;1.20;;;;;;;13.29;53.06;100673.29;107905;274;114238;-57
2023/10/08 09:10:12;;;;;;;2.00;1.00;;;;;;;13.54;53.56;100678.80;107869;274;93578;-54
2023/10/08 09:12:47;;;;;;;2.20;0.90;;;;;;;13.70;53.57;100672.15;107979;274;96872;-53
2023/10/08 09:15:28;;;;;;;3.60;1.00;;;;;;;14.52;54.17;100672.64;107918;274;119551;-54
2023/10/08 09:18:11;;;;;;;2.80;1.20;;;;;;;15.27;53.33;100677.78;107926;274;104587;-55
2023/10/08 09:20:58;;;;;;;1.70;1.20;;;;;;;15.71;52.79;100670.50;107919;274;116761;-56
2023/10/08 09:23:44;;;;;;;3.50;0.90;;;;;;;16.35;52.72;100669.64;107874;274;94705;-56
2023/10/08 09:26:26;;;;;;;1.50;0.70;;;;;;;16.90;51.20;100677.55;107937;274;96655;-56
2023/10/08 09:29:07;;;;;;;1.40;0.70;;;;;;;17.39;50.49;100673.73;107875;274;119284;-57
2023/10/08 09:31:52;;;;;;;2.40;0.80;;;;;;;17.84;49.06;100676.67;107918;274;106172;-55
2023/10/08 09:34:37;;;;;;;2.70;0.90;;;;;;;18.37;49.05;100679.94;107910;274;114180;-56
2023/10/08 09:37:20;;;;;;;3.20;1.00;;;;;;;18.53;47.77;100684.05;107977;274;96439;-58
2023/10/08 09:40:08;;;;;;;3.70;2.60;;;;;;;18.28;46.78;100683.21;107894;274;97893;-57
2023/10/08 09:42:56;;;;;;;2.00;1.10;;;;;;;17.93;46.57;100684.63;107863;274;118831;-59
2023/10/08 09:45:38;;;;;;;4.10;1.50;;;;;;;17.83;46.20;100693.98;107906;274;105589;-55
2023/10/08 09:48:30;;;;;;;1.80;0.90;;;;;;;17.36;45.96;100697.17;107951;274;115248;-56
2023/10/08 09:51:16;;;;;;;2.30;0.90;;;;;;;16.80;44.95;100696.91;107874;274;92945;-54
2023/10/08 09:54:10;;;;;;;2.20;0.60;;;;;;;16.40;46.09;100709.76;107902;274;96818;-54
2023/10/08 09:56:46;;;;;;;2.30;1.10;;;;;;;15.95;46.51;100709.09;107926;274;118241;-58
2023/10/08 09:59:28;;;;;;;1.60;0.80;;;;;;;15.69;46.58;100706.68;107938;274;106378;-56
2023/10/08 10:02:11;;;;;;;2.50;1.00;;;;;;;15.52;47.19;100705.92;107928;274;115755;-55
2023/10/08 10:04:56;;;;;;;1.80;0.70;;;;;;;15.36;47.94;100707.34;107896;274;94563;-56
2023/10/08 10:07:41;;;;;;;1.60;0.70;;;;;;;15.15;47.39;100724.54;107902;274;98024;-59
2023/10/08 10:10:38;;;;;;;2.30;0.90;;;;;;;14.64;46.58;100722.98;107944;274;118285;-59
2023/10/08 10:13:16;;;;;;;;;;;;;;;14.30;47.03;100720.11;107903;274;106039;-59
2023/10/08 10:15:53;;;;;;;2.30;1.20;;;;;;;14.10;47.21;100724.85;107875;274;114594;-55
2023/10/08 10:18:37;;;;;;;3.10;1.30;;;;;;;13.84;47.25;100728.64;107891;274;92532;-55
2023/10/08 10:21:34;;;;;;;2.20;0.60;;;;;;;13.87;47.02;100731.79;107893;274;97123;-57
2023/10/08 10:24:34;;;;;;;1.90;0.60;;;;;;;13.70;47.55;100725.39;107827;274;119620;-56
2023/10/08 10:27:18;;;;;;;1.50;0.70;;;;;;;13.53;47.32;100722.77;107867;274;105503;-58
2023/10/08 10:30:03;;;;;;;1.00;0.60;;;;;;;13.58;47.98;100724.17;107905;274;117055;-58
2023/10/08 10:32:46;;;;;;;2.00;0.90;;;;;;;13.63;48.08;100722.90;107872;274;94596;-55
2023/10/08 10:35:29;;;;;;;4.20;0.60;;;;;;;13.65;48.15;100718.45;107880;274;97047;-55
2023/10/08 10:38:16;;;;;;;1.50;0.70;;;;;;;13.68;48.19;100722.71;107905;274;118387;-55
2023/10/08 10:41:08;;;;;;;1.70;0.90;;;;;;;13.51;47.67;100722.76;107896;274;105471;-57
2023/10/08 10:43:52;;;;;;;1.70;0.70;;;;;;;13.47;47.52;100716.46;107894;274;114758;-57
2023/10/08 10:46:42;;;;;;;5.60;1.80;;;;;;;13.52;47.63;100719.63;107622;274;432529;-56
2023/10/08 10:49:24;;;;;;;2.50;1.50;;;;;;;13.51;47.35;100730.19;107979;274;97961;-60
2023/10/08 10:52:05;;;;;;;2.60;0.80;;;;;;;13.58;47.59;100721.88;107956;274;120905;-60
2023/10/08 10:54:58;;;;;;;2.50;0.70;;;;;;;13.54;47.44;100728.70;107919;274;105279;-59
2023/10/08 10:57:42;;;;;;;1.70;0.60;;;;;;;13.50;47.28;100723.58;107872;274;114629;-58
2023/10/08 11:00:47;;;;;;;1.40;0.70;;;;;;;13.45;46.88;100721.29;107931;274;95264;-56
2023/10/08 11:03:39;;;;;;;1.50;0.60;;;;;;;13.43;46.65;100725.89;107880;274;96534;-59
2023/10/08 11:06:15;;;;;;;1.10;0.60;;;;;;;13.41;46.99;100727.33;107941;274;119406;-55
2023/10/08 11:09:05;;;;;;;1.50;0.60;;;;;;;13.36;46.87;100725.92;107877;274;106026;-54
2023/10/08 11:11:44;;;;;;;3.10;0.90;;;;;;;13.37;46.65;100733.20;107867;274;113328;-55
2023/10/08 11:14:23;;;;;;;1.20;0.70;;;;;;;13.39;45.86;100741.55;107883;274;93090;-55
2023/10/08 11:17:01;;;;;;;1.60;0.60;;;;;;;13.24;44.97;100740.86;107901;274;97055;-53
2023/10/08 11:19:45;;;;;;;2.30;0.60;;;;;;;12.94;43.73;100744.33;107859;274;120681;-54
2023/10/08 11:22:44;;;;;;;2.00;0.60;;;;;;;12.79;44.34;100745.73;107887;274;105171;-57
2023/10/08 11:25:30;;;;;;;;;;;;;;;12.79;44.50;100749.91;107943;274;113557;-55
2023/10/08 11:28:12;;;;;;;0.80;0.50;;;;;;;12.75;44.69;100749.58;107908;274;94684;-55
2023/10/08 11:31:01;;;;;;;1.80;0.90;;;;;;;12.80;45.05;100747.95;107938;274;95641;-57
2023/10/08 11:33:53;;;;;;;1.90;0.80;;;;;;;12.90;45.00;100757.34;107923;274;117284;-56
2023/10/08 11:36:48;;;;;;;2.10;0.80;;;;;;;12.99;45.25;100752.63;107924;274;105975;-58
2023/10/08 11:39:23;;;;;;;1.60;0.90;;;;;;;12.96;45.00;100745.84;107920;274;115047;-59
2023/10/08 11:42:16;;;;;;;2.40;0.60;;;;;;;13.03;45.18;100742.77;107971;274;96622;-56
2023/10/08 11:44:54;;;;;;;;;;;;;;;13.18;45.20;100746.84;107904;274;96850;-56
2023/10/08 11:47:37;;;;;;;2.00;0.70;;;;;;;13.15;44.84;100736.96;107902;274;118622;-54
2023/10/08 11:50:21;;;;;;;1.50;0.50;;;;;;;13.18;44.81;100751.22;107899;274;104386;-54
2023/10/08 11:53:02;;;;;;;1.10;0.70;;;;;;;13.17;44.15;100749.95;107910;274;113927;-56
2023/10/08 11:55:42;;;;;;;3.30;0.90;;;;;;;13.20;44.35;100752.23;107873;274;95369;-58
2023/10/08 11:58:28;;;;;;;2.40;0.70;;;;;;;13.20;44.66;100757.24;107857;274;97782;-59
2023/10/08 12:01:21;;;;;;;0.90;0.60;;;;;;;13.20;44.41;100761.80;107873;274;119837;-57
2023/10/08 12:03:59;;;;;;;3.10;0.70;;;;;;;13.04;43.55;100765.36;107883;274;105115;-57
2023/10/08 12:06:42;;;;;;;1.00;0.80;;;;;;;12.85;43.33;100770.32;107953;274;114376;-57
2023/10/08 12:09:18;;;;;;;2.30;0.80;;;;;;;12.65;43.45;100763.70;107897;274;93983;-57
2023/10/08 12:11:59;;;;;;;2.50;0.70;;;;;;;12.63;43.42;100763.23;107956;274;99221;-55
2023/10/08 12:14:37;;;;;;;1.50;0.90;;;;;;;12.53;42.56;100763.78;107948;274;119364;-56
2023/10/08 12:17:17;;;;;;;2.20;0.90;;;;;;;12.36;40.68;100766.87;107935;274;106002;-59
2023/10/08 12:19:52;;;;;;;2.70;0.80;;;;;;;12.36;42.00;100762.58;107910;274;112105;-58
2023/10/08 12:22:32;;;;;;;1.70;1.00;;;;;;;12.44;42.10;100765.58;107927;274;92925;-54
2023/10/08 12:25:11;;;;;;;1.50;0.70;;;;;;;12.48;42.30;100766.21;107950;274;98068;-53
2023/10/08 12:27:49;;;;;;;1.20;0.70;;;;;;;12.52;42.31;100761.02;107930;274;119060;-58
2023/10/08 12:30:41;;;;;;;1.40;0.80;;;;;;;12.61;43.04;100765.92;107919;274;105150;-55
2023/10/08 12:33:24;;;;;;;1.40;0.70;;;;;;;12.62;42.59;100775.77;107895;274;113633;-58
2023/10/08 12:36:10;;;;;;;1.50;0.70;;;;;;;12.55;42.28;100782.07;107912;274;94440;-54
2023/10/08 12:38:47;;;;;;;1.40;0.80;;;;;;;12.54;42.74;100770.21;107898;274;98245;-53
2023/10/08 12:41:33;;;;;;;2.70;0.80;;;;;;;12.54;42.56;100761.39;107916;274;118320;-55
2023/10/08 12:44:09;;;;;;;2.60;0.70;;;;;;;12.49;42.80;100766.80;107880;274;106105;-53
2023/10/08 12:46:49;;;;;;;1.90;0.60;;;;;;;12.46;42.78;100769.09;107913;274;113978;-56
2023/10/08 12:49:33;;;;;;;1.50;0.70;;;;;;;12.48;42.82;100774.20;107860;274;94515;-56
2023/10/08 12:52:14;;;;;;;10.00;6.00;;;;;;;12.36;42.37;100776.11;107885;274;96068;-53